sensor_id;sensor_type;location;lat;lon;timestamp;temperature;humidity
23719;DHT22;43322;52.230;5.702;2022-10-16T00:02:05;12.50;99.90
23719;DHT22;43322;52.230;5.702;2022-10-16T00:04:32;12.50;99.90
23719;DHT22;43322;52.230;5.702;2022-10-16T00:06:59;12.40;99.90
23719;DHT22;43322;52.230;5.702;2022-10-16T00:09:25;12.40;99.90
23719;DHT22;43322;52.230;5.702;2022-10-16T00:11:52;12.40;99.90
23719;DHT22;43322;52.230;5.702;2022-10-16T00:14:19;12.50;99.90
23719;DHT22;43322;52.230;5.702;2022-10-16T00:16:47;12.40;99.90
23719;DHT22;43322;52.230;5.702;2022-10-16T00:19:14;12.40;99.90
23719;DHT22;43322;52.230;5.702;2022-10-16T00:21:41;12.30;99.90
23719;DHT22;43322;52.230;5.702;2022-10-16T00:24:09;12.40;99.90
23719;DHT22;43322;52.230;5.702;2022-10-16T00:26:36;12.40;99.90
23719;DHT22;43322;52.230;5.702;2022-10-16T00:29:04;13.00;99.90
23719;DHT22;43322;52.230;5.702;2022-10-16T00:31:31;12.50;99.90
23719;DHT22;43322;52.230;5.702;2022-10-16T00:33:59;12.50;99.90
23719;DHT22;43322;52.230;5.702;2022-10-16T00:36:26;13.10;99.90
23719;DHT22;43322;52.230;5.702;2022-10-16T00:38:55;12.60;99.90
23719;DHT22;43322;52.230;5.702;2022-10-16T00:41:24;12.50;99.90
23719;DHT22;43322;52.230;5.702;2022-10-16T00:43:52;12.90;99.90
23719;DHT22;43322;52.230;5.702;2022-10-16T00:46:21;12.50;99.90
23719;DHT22;43322;52.230;5.702;2022-10-16T00:48:51;12.50;99.90
23719;DHT22;43322;52.230;5.702;2022-10-16T00:51:25;12.60;99.90
23719;DHT22;43322;52.230;5.702;2022-10-16T00:53:52;12.60;99.90
23719;DHT22;43322;52.230;5.702;2022-10-16T00:56:19;13.10;99.90
23719;DHT22;43322;52.230;5.702;2022-10-16T00:58:46;12.60;99.90
23719;DHT22;43322;52.230;5.702;2022-10-16T01:01:13;12.60;99.90
23719;DHT22;43322;52.230;5.702;2022-10-16T01:03:40;12.70;99.90
23719;DHT22;43322;52.230;5.702;2022-10-16T01:06:28;12.60;99.90
23719;DHT22;43322;52.230;5.702;2022-10-16T01:09:16;13.20;99.90
23719;DHT22;43322;52.230;5.702;2022-10-16T01:11:52;12.70;99.90
23719;DHT22;43322;52.230;5.702;2022-10-16T01:14:26;12.80;99.90
23719;DHT22;43322;52.230;5.702;2022-10-16T01:16:58;12.80;99.90
23719;DHT22;43322;52.230;5.702;2022-10-16T01:19:44;12.80;99.90
23719;DHT22;43322;52.230;5.702;2022-10-16T01:22:16;13.10;99.90
23719;DHT22;43322;52.230;5.702;2022-10-16T01:24:48;12.90;99.90
23719;DHT22;43322;52.230;5.702;2022-10-16T01:27:21;12.90;99.90
23719;DHT22;43322;52.230;5.702;2022-10-16T01:29:53;13.80;99.90
23719;DHT22;43322;52.230;5.702;2022-10-16T01:32:31;13.00;99.90
23719;DHT22;43322;52.230;5.702;2022-10-16T01:35:01;13.40;99.90
23719;DHT22;43322;52.230;5.702;2022-10-16T01:37:34;13.10;99.90
23719;DHT22;43322;52.230;5.702;2022-10-16T01:40:05;13.10;99.90
23719;DHT22;43322;52.230;5.702;2022-10-16T01:42:37;13.00;99.90
23719;DHT22;43322;52.230;5.702;2022-10-16T01:45:06;13.00;99.90
23719;DHT22;43322;52.230;5.702;2022-10-16T01:47:37;13.00;99.90
23719;DHT22;43322;52.230;5.702;2022-10-16T01:50:07;12.90;99.90
23719;DHT22;43322;52.230;5.702;2022-10-16T01:52:38;13.10;99.90
23719;DHT22;43322;52.230;5.702;2022-10-16T01:55:08;13.00;99.90
23719;DHT22;43322;52.230;5.702;2022-10-16T01:57:39;13.00;99.90
23719;DHT22;43322;52.230;5.702;2022-10-16T02:00:11;13.00;99.90
23719;DHT22;43322;52.230;5.702;2022-10-16T02:02:39;13.10;99.90
23719;DHT22;43322;52.230;5.702;2022-10-16T02:05:12;13.20;99.90
23719;DHT22;43322;52.230;5.702;2022-10-16T02:07:42;13.00;99.90
23719;DHT22;43322;52.230;5.702;2022-10-16T02:10:09;13.00;99.90
23719;DHT22;43322;52.230;5.702;2022-10-16T02:12:40;13.20;99.90
23719;DHT22;43322;52.230;5.702;2022-10-16T02:15:08;13.10;99.90
23719;DHT22;43322;52.230;5.702;2022-10-16T02:17:35;13.00;99.90
23719;DHT22;43322;52.230;5.702;2022-10-16T02:20:02;13.10;99.90
23719;DHT22;43322;52.230;5.702;2022-10-16T02:22:32;13.00;99.90
23719;DHT22;43322;52.230;5.702;2022-10-16T02:25:04;13.30;99.90
23719;DHT22;43322;52.230;5.702;2022-10-16T02:27:35;13.00;99.90
23719;DHT22;43322;52.230;5.702;2022-10-16T02:30:12;13.00;99.90
23719;DHT22;43322;52.230;5.702;2022-10-16T02:32:44;13.00;99.90
23719;DHT22;43322;52.230;5.702;2022-10-16T02:35:11;13.00;99.90
23719;DHT22;43322;52.230;5.702;2022-10-16T02:37:39;13.00;99.90
23719;DHT22;43322;52.230;5.702;2022-10-16T02:40:08;13.10;99.90
23719;DHT22;43322;52.230;5.702;2022-10-16T02:42:37;12.90;99.90
23719;DHT22;43322;52.230;5.702;2022-10-16T02:45:07;13.30;99.90
23719;DHT22;43322;52.230;5.702;2022-10-16T02:47:35;12.90;99.90
23719;DHT22;43322;52.230;5.702;2022-10-16T02:50:02;12.90;99.90
23719;DHT22;43322;52.230;5.702;2022-10-16T02:52:28;12.90;99.90
23719;DHT22;43322;52.230;5.702;2022-10-16T02:54:55;12.90;99.90
23719;DHT22;43322;52.230;5.702;2022-10-16T02:57:22;12.90;99.90
23719;DHT22;43322;52.230;5.702;2022-10-16T02:59:49;13.60;99.90
23719;DHT22;43322;52.230;5.702;2022-10-16T03:02:17;12.90;99.90
23719;DHT22;43322;52.230;5.702;2022-10-16T03:04:44;12.60;99.90
23719;DHT22;43322;52.230;5.702;2022-10-16T03:07:11;12.90;99.90
23719;DHT22;43322;52.230;5.702;2022-10-16T03:09:37;12.90;99.90
23719;DHT22;43322;52.230;5.702;2022-10-16T03:12:04;12.90;99.90
23719;DHT22;43322;52.230;5.702;2022-10-16T03:14:32;12.80;99.90
23719;DHT22;43322;52.230;5.702;2022-10-16T03:16:58;12.90;99.90
23719;DHT22;43322;52.230;5.702;2022-10-16T03:19:27;12.80;99.90
23719;DHT22;43322;52.230;5.702;2022-10-16T03:21:53;13.20;99.90
23719;DHT22;43322;52.230;5.702;2022-10-16T03:24:20;12.80;99.90
23719;DHT22;43322;52.230;5.702;2022-10-16T03:26:47;12.80;99.90
23719;DHT22;43322;52.230;5.702;2022-10-16T03:29:14;12.70;99.90
23719;DHT22;43322;52.230;5.702;2022-10-16T03:31:40;12.70;99.90
23719;DHT22;43322;52.230;5.702;2022-10-16T03:34:07;12.80;99.90
23719;DHT22;43322;52.230;5.702;2022-10-16T03:36:35;12.80;99.90
23719;DHT22;43322;52.230;5.702;2022-10-16T03:39:02;12.80;99.90
23719;DHT22;43322;52.230;5.702;2022-10-16T03:41:29;12.90;99.90
23719;DHT22;43322;52.230;5.702;2022-10-16T03:43:56;12.80;99.90
23719;DHT22;43322;52.230;5.702;2022-10-16T03:46:22;12.70;99.90
23719;DHT22;43322;52.230;5.702;2022-10-16T03:48:49;12.90;99.90
23719;DHT22;43322;52.230;5.702;2022-10-16T03:51:16;12.60;99.90
23719;DHT22;43322;52.230;5.702;2022-10-16T03:53:44;12.70;99.90
23719;DHT22;43322;52.230;5.702;2022-10-16T03:56:11;12.60;99.90
23719;DHT22;43322;52.230;5.702;2022-10-16T03:58:38;12.60;99.90
23719;DHT22;43322;52.230;5.702;2022-10-16T04:01:04;12.60;99.90
23719;DHT22;43322;52.230;5.702;2022-10-16T04:03:31;12.60;99.90
23719;DHT22;43322;52.230;5.702;2022-10-16T04:05:58;12.60;99.90
23719;DHT22;43322;52.230;5.702;2022-10-16T04:08:25;12.60;99.90
23719;DHT22;43322;52.230;5.702;2022-10-16T04:10:53;12.60;99.90
23719;DHT22;43322;52.230;5.702;2022-10-16T04:13:20;12.70;99.90
23719;DHT22;43322;52.230;5.702;2022-10-16T04:15:47;12.60;99.90
23719;DHT22;43322;52.230;5.702;2022-10-16T04:18:13;12.50;99.90
23719;DHT22;43322;52.230;5.702;2022-10-16T04:20:40;12.50;99.90
23719;DHT22;43322;52.230;5.702;2022-10-16T04:23:07;12.50;99.90
23719;DHT22;43322;52.230;5.702;2022-10-16T04:25:34;12.60;99.90
23719;DHT22;43322;52.230;5.702;2022-10-16T04:28:02;12.50;99.90
23719;DHT22;43322;52.230;5.702;2022-10-16T04:30:29;12.50;99.90
23719;DHT22;43322;52.230;5.702;2022-10-16T04:32:56;12.40;99.90
23719;DHT22;43322;52.230;5.702;2022-10-16T04:35:22;12.50;99.90
23719;DHT22;43322;52.230;5.702;2022-10-16T04:37:49;12.50;99.90
23719;DHT22;43322;52.230;5.702;2022-10-16T04:40:16;12.40;99.90
23719;DHT22;43322;52.230;5.702;2022-10-16T04:42:43;12.60;99.90
23719;DHT22;43322;52.230;5.702;2022-10-16T04:45:12;12.40;99.90
23719;DHT22;43322;52.230;5.702;2022-10-16T04:47:39;12.40;99.90
23719;DHT22;43322;52.230;5.702;2022-10-16T04:50:07;13.10;99.90
23719;DHT22;43322;52.230;5.702;2022-10-16T04:52:34;12.40;99.90
23719;DHT22;43322;52.230;5.702;2022-10-16T04:55:01;12.40;99.90
23719;DHT22;43322;52.230;5.702;2022-10-16T04:57:28;12.40;99.90
23719;DHT22;43322;52.230;5.702;2022-10-16T04:59:55;12.30;99.90
23719;DHT22;43322;52.230;5.702;2022-10-16T05:02:23;12.40;99.90
23719;DHT22;43322;52.230;5.702;2022-10-16T05:04:50;12.40;99.90
23719;DHT22;43322;52.230;5.702;2022-10-16T05:07:17;12.70;99.90
23719;DHT22;43322;52.230;5.702;2022-10-16T05:09:44;13.10;99.90
23719;DHT22;43322;52.230;5.702;2022-10-16T05:12:11;12.30;99.90
23719;DHT22;43322;52.230;5.702;2022-10-16T05:14:38;12.30;99.90
23719;DHT22;43322;52.230;5.702;2022-10-16T05:17:04;12.30;99.90
23719;DHT22;43322;52.230;5.702;2022-10-16T05:19:32;12.40;99.90
23719;DHT22;43322;52.230;5.702;2022-10-16T05:21:59;12.40;99.90
23719;DHT22;43322;52.230;5.702;2022-10-16T05:24:26;12.40;99.90
23719;DHT22;43322;52.230;5.702;2022-10-16T05:26:53;12.40;99.90
23719;DHT22;43322;52.230;5.702;2022-10-16T05:29:20;12.70;99.90
23719;DHT22;43322;52.230;5.702;2022-10-16T05:31:50;12.30;99.90
23719;DHT22;43322;52.230;5.702;2022-10-16T05:34:18;12.40;99.90
23719;DHT22;43322;52.230;5.702;2022-10-16T05:36:46;12.40;99.90
23719;DHT22;43322;52.230;5.702;2022-10-16T05:39:14;12.90;99.90
23719;DHT22;43322;52.230;5.702;2022-10-16T05:41:42;12.20;99.90
23719;DHT22;43322;52.230;5.702;2022-10-16T05:44:08;12.30;99.90
23719;DHT22;43322;52.230;5.702;2022-10-16T05:46:35;12.30;99.90
23719;DHT22;43322;52.230;5.702;2022-10-16T05:49:02;12.90;99.90
23719;DHT22;43322;52.230;5.702;2022-10-16T05:51:29;12.40;99.90
23719;DHT22;43322;52.230;5.702;2022-10-16T05:53:57;12.20;99.90
23719;DHT22;43322;52.230;5.702;2022-10-16T05:56:24;12.20;99.90
23719;DHT22;43322;52.230;5.702;2022-10-16T05:58:51;12.20;99.90
23719;DHT22;43322;52.230;5.702;2022-10-16T06:01:19;12.20;99.90
23719;DHT22;43322;52.230;5.702;2022-10-16T06:03:46;12.20;99.90
23719;DHT22;43322;52.230;5.702;2022-10-16T06:06:15;12.50;99.90
23719;DHT22;43322;52.230;5.702;2022-10-16T06:08:43;12.20;99.90
23719;DHT22;43322;52.230;5.702;2022-10-16T06:11:14;12.30;99.90
23719;DHT22;43322;52.230;5.702;2022-10-16T06:13:41;12.30;99.90
23719;DHT22;43322;52.230;5.702;2022-10-16T06:16:09;12.30;99.90
23719;DHT22;43322;52.230;5.702;2022-10-16T06:18:36;12.20;99.90
23719;DHT22;43322;52.230;5.702;2022-10-16T06:21:08;12.30;99.90
23719;DHT22;43322;52.230;5.702;2022-10-16T06:23:35;12.30;99.90
23719;DHT22;43322;52.230;5.702;2022-10-16T06:26:06;12.30;99.90
23719;DHT22;43322;52.230;5.702;2022-10-16T06:28:35;12.40;99.90
23719;DHT22;43322;52.230;5.702;2022-10-16T06:31:02;12.30;99.90
23719;DHT22;43322;52.230;5.702;2022-10-16T06:33:29;12.40;99.90
23719;DHT22;43322;52.230;5.702;2022-10-16T06:36:00;12.40;99.90
23719;DHT22;43322;52.230;5.702;2022-10-16T06:38:27;13.20;99.90
23719;DHT22;43322;52.230;5.702;2022-10-16T06:40:54;12.50;99.90
23719;DHT22;43322;52.230;5.702;2022-10-16T06:43:21;12.60;99.90
23719;DHT22;43322;52.230;5.702;2022-10-16T06:45:52;12.50;99.90
23719;DHT22;43322;52.230;5.702;2022-10-16T06:48:19;12.50;99.90
23719;DHT22;43322;52.230;5.702;2022-10-16T06:50:55;12.50;99.90
23719;DHT22;43322;52.230;5.702;2022-10-16T06:53:22;12.50;99.90
23719;DHT22;43322;52.230;5.702;2022-10-16T06:55:49;12.60;99.90
23719;DHT22;43322;52.230;5.702;2022-10-16T06:58:16;12.60;99.90
23719;DHT22;43322;52.230;5.702;2022-10-16T07:00:43;12.60;99.90
23719;DHT22;43322;52.230;5.702;2022-10-16T07:03:11;12.70;99.90
23719;DHT22;43322;52.230;5.702;2022-10-16T07:05:38;12.50;99.90
23719;DHT22;43322;52.230;5.702;2022-10-16T07:08:05;12.60;99.90
23719;DHT22;43322;52.230;5.702;2022-10-16T07:10:32;12.80;99.90
23719;DHT22;43322;52.230;5.702;2022-10-16T07:12:58;12.60;99.90
23719;DHT22;43322;52.230;5.702;2022-10-16T07:15:26;12.90;99.90
23719;DHT22;43322;52.230;5.702;2022-10-16T07:17:53;12.70;99.90
23719;DHT22;43322;52.230;5.702;2022-10-16T07:20:21;13.00;99.90
23719;DHT22;43322;52.230;5.702;2022-10-16T07:22:48;12.60;99.90
23719;DHT22;43322;52.230;5.702;2022-10-16T07:25:15;12.70;99.90
23719;DHT22;43322;52.230;5.702;2022-10-16T07:27:42;12.70;99.90
23719;DHT22;43322;52.230;5.702;2022-10-16T07:30:09;12.70;99.90
23719;DHT22;43322;52.230;5.702;2022-10-16T07:32:36;12.80;99.90
23719;DHT22;43322;52.230;5.702;2022-10-16T07:35:03;12.90;99.90
23719;DHT22;43322;52.230;5.702;2022-10-16T07:37:31;12.80;99.90
23719;DHT22;43322;52.230;5.702;2022-10-16T07:39:58;12.60;99.90
23719;DHT22;43322;52.230;5.702;2022-10-16T07:42:26;12.90;99.90
23719;DHT22;43322;52.230;5.702;2022-10-16T07:44:53;12.90;99.90
23719;DHT22;43322;52.230;5.702;2022-10-16T07:47:20;12.90;99.90
23719;DHT22;43322;52.230;5.702;2022-10-16T07:49:47;13.00;99.90
23719;DHT22;43322;52.230;5.702;2022-10-16T07:52:14;12.80;99.90
23719;DHT22;43322;52.230;5.702;2022-10-16T07:54:42;13.20;99.90
23719;DHT22;43322;52.230;5.702;2022-10-16T07:57:08;13.20;99.90
23719;DHT22;43322;52.230;5.702;2022-10-16T07:59:35;13.20;99.90
23719;DHT22;43322;52.230;5.702;2022-10-16T08:02:02;13.60;99.90
23719;DHT22;43322;52.230;5.702;2022-10-16T08:04:29;13.40;99.90
23719;DHT22;43322;52.230;5.702;2022-10-16T08:06:55;13.60;99.90
23719;DHT22;43322;52.230;5.702;2022-10-16T08:09:22;13.50;99.90
23719;DHT22;43322;52.230;5.702;2022-10-16T08:11:51;13.50;99.90
23719;DHT22;43322;52.230;5.702;2022-10-16T08:14:18;14.00;99.90
23719;DHT22;43322;52.230;5.702;2022-10-16T08:16:44;13.40;99.90
23719;DHT22;43322;52.230;5.702;2022-10-16T08:19:11;13.40;99.90
23719;DHT22;43322;52.230;5.702;2022-10-16T08:21:38;13.50;99.90
23719;DHT22;43322;52.230;5.702;2022-10-16T08:24:05;13.60;99.90
23719;DHT22;43322;52.230;5.702;2022-10-16T08:26:31;13.50;99.90
23719;DHT22;43322;52.230;5.702;2022-10-16T08:28:59;13.80;99.90
23719;DHT22;43322;52.230;5.702;2022-10-16T08:31:26;13.90;99.90
23719;DHT22;43322;52.230;5.702;2022-10-16T08:33:53;14.00;99.90
23719;DHT22;43322;52.230;5.702;2022-10-16T08:36:20;14.10;99.90
23719;DHT22;43322;52.230;5.702;2022-10-16T08:38:48;14.00;99.90
23719;DHT22;43322;52.230;5.702;2022-10-16T08:41:34;14.00;99.90
23719;DHT22;43322;52.230;5.702;2022-10-16T08:44:25;14.10;99.90
23719;DHT22;43322;52.230;5.702;2022-10-16T08:47:00;14.00;99.90
23719;DHT22;43322;52.230;5.702;2022-10-16T08:49:30;14.10;99.90
23719;DHT22;43322;52.230;5.702;2022-10-16T08:51:57;14.70;99.90
23719;DHT22;43322;52.230;5.702;2022-10-16T08:54:29;14.40;99.90
23719;DHT22;43322;52.230;5.702;2022-10-16T08:56:57;14.60;99.90
23719;DHT22;43322;52.230;5.702;2022-10-16T08:59:28;14.30;99.90
23719;DHT22;43322;52.230;5.702;2022-10-16T09:01:55;14.30;99.90
23719;DHT22;43322;52.230;5.702;2022-10-16T09:04:50;14.30;99.90
23719;DHT22;43322;52.230;5.702;2022-10-16T09:07:25;14.20;99.90
23719;DHT22;43322;52.230;5.702;2022-10-16T09:10:11;14.90;99.90
23719;DHT22;43322;52.230;5.702;2022-10-16T09:12:45;14.40;99.90
23719;DHT22;43322;52.230;5.702;2022-10-16T09:15:22;14.30;99.90
23719;DHT22;43322;52.230;5.702;2022-10-16T09:17:56;14.50;99.90
23719;DHT22;43322;52.230;5.702;2022-10-16T09:20:31;14.50;99.90
23719;DHT22;43322;52.230;5.702;2022-10-16T09:23:12;14.70;99.90
23719;DHT22;43322;52.230;5.702;2022-10-16T09:25:43;14.60;99.90
23719;DHT22;43322;52.230;5.702;2022-10-16T09:28:10;14.90;99.90
23719;DHT22;43322;52.230;5.702;2022-10-16T09:30:39;14.80;99.90
23719;DHT22;43322;52.230;5.702;2022-10-16T09:33:06;14.90;99.90
23719;DHT22;43322;52.230;5.702;2022-10-16T09:35:37;14.60;99.90
23719;DHT22;43322;52.230;5.702;2022-10-16T09:38:05;14.60;99.90
23719;DHT22;43322;52.230;5.702;2022-10-16T09:40:34;14.80;99.90
23719;DHT22;43322;52.230;5.702;2022-10-16T09:43:10;14.90;99.90
23719;DHT22;43322;52.230;5.702;2022-10-16T09:45:43;15.00;99.90
23719;DHT22;43322;52.230;5.702;2022-10-16T09:48:11;15.00;99.90
23719;DHT22;43322;52.230;5.702;2022-10-16T09:50:38;15.00;99.90
23719;DHT22;43322;52.230;5.702;2022-10-16T09:53:11;15.50;99.90
23719;DHT22;43322;52.230;5.702;2022-10-16T09:55:48;15.50;99.90
23719;DHT22;43322;52.230;5.702;2022-10-16T09:58:16;15.40;99.90
23719;DHT22;43322;52.230;5.702;2022-10-16T10:00:49;15.50;99.90
23719;DHT22;43322;52.230;5.702;2022-10-16T10:03:33;16.00;99.90
23719;DHT22;43322;52.230;5.702;2022-10-16T10:06:14;15.80;99.90
23719;DHT22;43322;52.230;5.702;2022-10-16T10:08:56;16.00;99.90
23719;DHT22;43322;52.230;5.702;2022-10-16T10:11:42;15.90;99.90
23719;DHT22;43322;52.230;5.702;2022-10-16T10:14:15;16.10;99.90
23719;DHT22;43322;52.230;5.702;2022-10-16T10:16:45;16.20;99.90
23719;DHT22;43322;52.230;5.702;2022-10-16T10:19:14;16.60;99.90
23719;DHT22;43322;52.230;5.702;2022-10-16T10:21:42;16.30;99.90
23719;DHT22;43322;52.230;5.702;2022-10-16T10:24:11;16.20;99.90
23719;DHT22;43322;52.230;5.702;2022-10-16T10:26:38;16.10;99.90
23719;DHT22;43322;52.230;5.702;2022-10-16T10:29:18;16.00;99.90
23719;DHT22;43322;52.230;5.702;2022-10-16T10:31:53;16.00;99.90
23719;DHT22;43322;52.230;5.702;2022-10-16T10:34:34;16.20;99.90
23719;DHT22;43322;52.230;5.702;2022-10-16T10:37:11;17.10;99.90
23719;DHT22;43322;52.230;5.702;2022-10-16T10:39:43;16.50;99.90
23719;DHT22;43322;52.230;5.702;2022-10-16T10:42:19;16.50;99.90
23719;DHT22;43322;52.230;5.702;2022-10-16T10:44:58;16.60;99.90
23719;DHT22;43322;52.230;5.702;2022-10-16T10:47:38;16.10;99.90
23719;DHT22;43322;52.230;5.702;2022-10-16T10:50:14;16.80;99.90
23719;DHT22;43322;52.230;5.702;2022-10-16T10:52:51;16.50;99.90
23719;DHT22;43322;52.230;5.702;2022-10-16T10:55:24;16.40;99.90
23719;DHT22;43322;52.230;5.702;2022-10-16T10:58:12;16.30;99.90
23719;DHT22;43322;52.230;5.702;2022-10-16T11:00:47;16.60;99.90
23719;DHT22;43322;52.230;5.702;2022-10-16T11:03:27;17.00;99.90
23719;DHT22;43322;52.230;5.702;2022-10-16T11:06:05;17.80;99.90
23719;DHT22;43322;52.230;5.702;2022-10-16T11:08:35;19.10;99.90
23719;DHT22;43322;52.230;5.702;2022-10-16T11:11:08;19.40;99.90
23719;DHT22;43322;52.230;5.702;2022-10-16T11:13:39;18.70;99.90
23719;DHT22;43322;52.230;5.702;2022-10-16T11:16:14;18.00;99.90
23719;DHT22;43322;52.230;5.702;2022-10-16T11:18:50;18.10;99.90
23719;DHT22;43322;52.230;5.702;2022-10-16T11:21:19;17.50;99.90
23719;DHT22;43322;52.230;5.702;2022-10-16T11:23:53;17.30;99.90
23719;DHT22;43322;52.230;5.702;2022-10-16T11:26:23;17.50;99.90
23719;DHT22;43322;52.230;5.702;2022-10-16T11:28:53;18.40;99.90
23719;DHT22;43322;52.230;5.702;2022-10-16T11:31:27;19.40;99.90
23719;DHT22;43322;52.230;5.702;2022-10-16T11:34:01;20.20;99.90
23719;DHT22;43322;52.230;5.702;2022-10-16T11:36:35;20.80;99.90
23719;DHT22;43322;52.230;5.702;2022-10-16T11:39:11;20.70;99.90
23719;DHT22;43322;52.230;5.702;2022-10-16T11:41:43;20.80;99.90
23719;DHT22;43322;52.230;5.702;2022-10-16T11:44:24;21.10;99.90
23719;DHT22;43322;52.230;5.702;2022-10-16T11:47:02;20.90;99.90
23719;DHT22;43322;52.230;5.702;2022-10-16T11:49:36;21.90;99.90
23719;DHT22;43322;52.230;5.702;2022-10-16T11:52:10;22.30;99.90
23719;DHT22;43322;52.230;5.702;2022-10-16T11:54:43;22.50;99.90
23719;DHT22;43322;52.230;5.702;2022-10-16T11:57:16;22.30;99.90
23719;DHT22;43322;52.230;5.702;2022-10-16T11:59:46;22.60;99.90
23719;DHT22;43322;52.230;5.702;2022-10-16T12:02:44;22.00;99.90
23719;DHT22;43322;52.230;5.702;2022-10-16T12:05:22;21.50;99.90
23719;DHT22;43322;52.230;5.702;2022-10-16T12:07:56;21.70;99.90
23719;DHT22;43322;52.230;5.702;2022-10-16T12:10:28;21.30;99.90
23719;DHT22;43322;52.230;5.702;2022-10-16T12:12:57;20.60;99.90
23719;DHT22;43322;52.230;5.702;2022-10-16T12:15:26;20.00;99.90
23719;DHT22;43322;52.230;5.702;2022-10-16T12:17:53;20.70;99.90
23719;DHT22;43322;52.230;5.702;2022-10-16T12:20:32;21.60;99.90
23719;DHT22;43322;52.230;5.702;2022-10-16T12:23:03;22.10;99.90
23719;DHT22;43322;52.230;5.702;2022-10-16T12:25:32;22.40;99.90
23719;DHT22;43322;52.230;5.702;2022-10-16T12:28:02;22.60;99.90
23719;DHT22;43322;52.230;5.702;2022-10-16T12:30:32;23.00;99.90
23719;DHT22;43322;52.230;5.702;2022-10-16T12:33:02;22.50;99.90
23719;DHT22;43322;52.230;5.702;2022-10-16T12:35:32;22.20;99.90
23719;DHT22;43322;52.230;5.702;2022-10-16T12:38:08;22.20;99.90
23719;DHT22;43322;52.230;5.702;2022-10-16T12:40:39;21.90;99.90
23719;DHT22;43322;52.230;5.702;2022-10-16T12:43:25;21.30;99.90
23719;DHT22;43322;52.230;5.702;2022-10-16T12:46:03;21.20;99.90
23719;DHT22;43322;52.230;5.702;2022-10-16T12:48:30;21.70;99.90
23719;DHT22;43322;52.230;5.702;2022-10-16T12:51:10;21.50;99.90
23719;DHT22;43322;52.230;5.702;2022-10-16T12:53:36;20.90;99.90
23719;DHT22;43322;52.230;5.702;2022-10-16T12:56:10;20.90;99.90
23719;DHT22;43322;52.230;5.702;2022-10-16T12:58:53;21.50;99.90
23719;DHT22;43322;52.230;5.702;2022-10-16T13:01:48;21.40;99.90
23719;DHT22;43322;52.230;5.702;2022-10-16T13:04:31;21.40;99.90
23719;DHT22;43322;52.230;5.702;2022-10-16T13:07:15;21.30;99.90
23719;DHT22;43322;52.230;5.702;2022-10-16T13:09:55;21.10;99.90
23719;DHT22;43322;52.230;5.702;2022-10-16T13:12:42;20.80;99.90
23719;DHT22;43322;52.230;5.702;2022-10-16T13:15:22;20.30;99.90
23719;DHT22;43322;52.230;5.702;2022-10-16T13:17:56;19.80;99.90
23719;DHT22;43322;52.230;5.702;2022-10-16T13:20:31;19.70;99.90
23719;DHT22;43322;52.230;5.702;2022-10-16T13:23:10;19.50;99.90
23719;DHT22;43322;52.230;5.702;2022-10-16T13:25:50;19.40;99.90
23719;DHT22;43322;52.230;5.702;2022-10-16T13:28:22;19.30;99.90
23719;DHT22;43322;52.230;5.702;2022-10-16T13:30:55;19.10;99.90
23719;DHT22;43322;52.230;5.702;2022-10-16T13:33:30;19.10;99.90
23719;DHT22;43322;52.230;5.702;2022-10-16T13:35:58;18.90;99.90
23719;DHT22;43322;52.230;5.702;2022-10-16T13:38:27;18.60;99.90
23719;DHT22;43322;52.230;5.702;2022-10-16T13:40:56;18.50;99.90
23719;DHT22;43322;52.230;5.702;2022-10-16T13:43:29;18.30;99.90
23719;DHT22;43322;52.230;5.702;2022-10-16T13:45:59;18.40;99.90
23719;DHT22;43322;52.230;5.702;2022-10-16T13:48:28;18.10;99.90
23719;DHT22;43322;52.230;5.702;2022-10-16T13:51:02;18.10;99.90
23719;DHT22;43322;52.230;5.702;2022-10-16T13:53:32;18.00;99.90
23719;DHT22;43322;52.230;5.702;2022-10-16T13:55:59;18.00;99.90
23719;DHT22;43322;52.230;5.702;2022-10-16T13:58:26;18.10;99.90
23719;DHT22;43322;52.230;5.702;2022-10-16T14:00:55;18.00;99.90
23719;DHT22;43322;52.230;5.702;2022-10-16T14:03:22;17.90;99.90
23719;DHT22;43322;52.230;5.702;2022-10-16T14:05:51;17.90;99.90
23719;DHT22;43322;52.230;5.702;2022-10-16T14:08:19;17.70;99.90
23719;DHT22;43322;52.230;5.702;2022-10-16T14:10:50;17.90;99.90
23719;DHT22;43322;52.230;5.702;2022-10-16T14:13:19;17.80;99.90
23719;DHT22;43322;52.230;5.702;2022-10-16T14:15:48;17.70;99.90
23719;DHT22;43322;52.230;5.702;2022-10-16T14:18:18;17.70;99.90
23719;DHT22;43322;52.230;5.702;2022-10-16T14:20:46;17.60;99.90
23719;DHT22;43322;52.230;5.702;2022-10-16T14:23:22;17.60;99.90
23719;DHT22;43322;52.230;5.702;2022-10-16T14:25:53;17.60;99.90
23719;DHT22;43322;52.230;5.702;2022-10-16T14:28:21;17.60;99.90
23719;DHT22;43322;52.230;5.702;2022-10-16T14:30:50;17.60;99.90
23719;DHT22;43322;52.230;5.702;2022-10-16T14:33:23;17.60;99.90
23719;DHT22;43322;52.230;5.702;2022-10-16T14:36:02;17.50;99.90
23719;DHT22;43322;52.230;5.702;2022-10-16T14:38:31;17.40;99.90
23719;DHT22;43322;52.230;5.702;2022-10-16T14:41:00;17.40;99.90
23719;DHT22;43322;52.230;5.702;2022-10-16T14:43:32;17.30;99.90
23719;DHT22;43322;52.230;5.702;2022-10-16T14:46:01;17.30;99.90
23719;DHT22;43322;52.230;5.702;2022-10-16T14:48:29;17.20;99.90
23719;DHT22;43322;52.230;5.702;2022-10-16T14:50:56;17.10;99.90
23719;DHT22;43322;52.230;5.702;2022-10-16T14:53:24;17.20;99.90
23719;DHT22;43322;52.230;5.702;2022-10-16T14:55:50;17.10;99.90
23719;DHT22;43322;52.230;5.702;2022-10-16T14:58:21;17.00;99.90
23719;DHT22;43322;52.230;5.702;2022-10-16T15:00:49;17.10;99.90
23719;DHT22;43322;52.230;5.702;2022-10-16T15:03:16;17.30;99.90
23719;DHT22;43322;52.230;5.702;2022-10-16T15:05:42;17.30;99.90
23719;DHT22;43322;52.230;5.702;2022-10-16T15:08:09;17.40;99.90
23719;DHT22;43322;52.230;5.702;2022-10-16T15:10:43;17.20;99.90
23719;DHT22;43322;52.230;5.702;2022-10-16T15:13:12;17.00;99.90
23719;DHT22;43322;52.230;5.702;2022-10-16T15:15:43;17.00;99.90
23719;DHT22;43322;52.230;5.702;2022-10-16T15:18:10;16.90;99.90
23719;DHT22;43322;52.230;5.702;2022-10-16T15:20:38;16.80;99.90
23719;DHT22;43322;52.230;5.702;2022-10-16T15:23:14;17.00;99.90
23719;DHT22;43322;52.230;5.702;2022-10-16T15:25:44;16.50;99.90
23719;DHT22;43322;52.230;5.702;2022-10-16T15:28:12;16.60;99.90
23719;DHT22;43322;52.230;5.702;2022-10-16T15:30:41;16.90;99.90
23719;DHT22;43322;52.230;5.702;2022-10-16T15:33:12;16.60;99.90
23719;DHT22;43322;52.230;5.702;2022-10-16T15:35:39;16.50;99.90
23719;DHT22;43322;52.230;5.702;2022-10-16T15:38:08;16.80;99.90
23719;DHT22;43322;52.230;5.702;2022-10-16T15:40:36;16.20;99.90
23719;DHT22;43322;52.230;5.702;2022-10-16T15:43:03;16.10;99.90
23719;DHT22;43322;52.230;5.702;2022-10-16T15:45:29;16.00;99.90
23719;DHT22;43322;52.230;5.702;2022-10-16T15:47:58;15.90;99.90
23719;DHT22;43322;52.230;5.702;2022-10-16T15:50:25;15.80;99.90